Time;durP1;ratioP1;P1;durP2;ratioP2;P2;SDS_P1;SDS_P2;PMS_P1;PMS_P2;Temp;Humidity;BMP_temperature;BMP_pressure;BME280_temperature;BME280_humidity;BME280_pressure;Samples;Min_cycle;Max_cycle;Signal;HPM_P1;HPM_P2
2022/12/16 00:02:14;;;;;;;17.13;11.67;;;-7.80;1.00;;;;;;5011174;28;20210;-80
2022/12/16 00:04:40;;;;;;;17.97;11.53;;;-7.80;1.00;;;;;;5010134;28;20183;-79
2022/12/16 00:07:06;;;;;;;18.93;11.70;;;-7.80;1.00;;;;;;5008227;28;20685;-80
2022/12/16 00:09:31;;;;;;;22.27;12.40;;;-7.90;1.00;;;;;;5010322;28;20183;-81
2022/12/16 00:11:57;;;;;;;17.27;11.67;;;-8.00;1.00;;;;;;5010690;28;20219;-79
2022/12/16 00:14:22;;;;;;;17.77;11.20;;;-7.80;1.00;;;;;;5010505;28;21151;-80
2022/12/16 00:16:48;;;;;;;19.53;11.87;;;-7.80;1.00;;;;;;5010990;28;20704;-78
2022/12/16 00:19:14;;;;;;;19.97;11.73;;;-7.90;99.90;;;;;;5008956;28;20184;-80
2022/12/16 00:21:39;;;;;;;20.07;12.23;;;-8.00;99.90;;;;;;5009947;28;20211;-79
2022/12/16 00:24:05;;;;;;;24.23;12.40;;;-8.00;99.90;;;;;;5011211;28;20194;-80
2022/12/16 00:26:31;;;;;;;18.60;11.80;;;-7.90;1.00;;;;;;5009672;28;20253;-80
2022/12/16 00:28:57;;;;;;;20.43;12.00;;;-8.00;99.90;;;;;;5008701;28;20188;-80
2022/12/16 00:31:22;;;;;;;20.23;12.90;;;-8.00;99.90;;;;;;5010548;28;20186;-80
2022/12/16 00:33:48;;;;;;;18.33;11.90;;;-8.10;99.90;;;;;;5008734;28;20213;-80
2022/12/16 00:36:13;;;;;;;19.43;10.80;;;-8.10;99.90;;;;;;5009053;28;20214;-78
2022/12/16 00:38:39;;;;;;;20.13;12.43;;;-8.20;99.90;;;;;;5009315;28;20183;-79
2022/12/16 00:41:05;;;;;;;16.83;11.37;;;-8.30;99.90;;;;;;5010418;28;20226;-79
2022/12/16 00:43:31;;;;;;;17.77;11.10;;;-8.40;99.90;;;;;;5008591;28;20250;-79
2022/12/16 00:45:57;;;;;;;19.77;10.93;;;-8.30;99.90;;;;;;5008565;28;20183;-79
2022/12/16 00:48:22;;;;;;;16.77;10.33;;;-8.30;99.90;;;;;;5008956;28;20704;-79
2022/12/16 00:50:50;;;;;;;16.37;10.10;;;-8.30;99.90;;;;;;5010146;28;20183;-80
2022/12/16 00:53:16;;;;;;;16.70;9.90;;;-8.30;99.90;;;;;;5017553;28;20286;-78
2022/12/16 00:55:42;;;;;;;15.87;10.43;;;-8.30;99.90;;;;;;5008966;28;20270;-80
2022/12/16 00:58:08;;;;;;;16.47;10.73;;;-8.40;99.90;;;;;;5010541;28;20211;-79
2022/12/16 01:00:34;;;;;;;16.87;10.17;;;-8.40;99.90;;;;;;5009691;28;20278;-79
2022/12/16 01:03:00;;;;;;;14.73;9.50;;;-8.40;99.90;;;;;;5010196;28;20641;-80
2022/12/16 01:05:26;;;;;;;16.70;10.77;;;-8.40;99.90;;;;;;5009087;28;20225;-79
2022/12/16 01:07:53;;;;;;;16.40;9.63;;;-8.50;99.90;;;;;;5009372;28;20207;-80
2022/12/16 01:10:19;;;;;;;17.20;10.20;;;-8.60;99.90;;;;;;5010574;28;20183;-81
2022/12/16 01:12:45;;;;;;;17.13;9.47;;;-8.50;99.90;;;;;;5008265;28;20191;-77
2022/12/16 01:15:12;;;;;;;17.17;10.40;;;-8.50;99.90;;;;;;5009691;28;20680;-82
2022/12/16 01:17:38;;;;;;;16.17;10.63;;;-8.50;99.90;;;;;;5010251;28;20199;-79
2022/12/16 01:20:04;;;;;;;15.63;9.27;;;-8.50;99.90;;;;;;5009287;28;20274;-78
2022/12/16 01:22:31;;;;;;;18.90;10.23;;;-8.60;99.90;;;;;;5008238;28;20322;-80
2022/12/16 01:24:58;;;;;;;17.00;11.10;;;-8.60;99.90;;;;;;5008390;28;20207;-78
2022/12/16 01:27:24;;;;;;;15.37;10.53;;;-8.60;99.90;;;;;;5009226;28;20210;-79
2022/12/16 01:29:50;;;;;;;18.20;10.30;;;-8.50;99.90;;;;;;5008177;28;20183;-77
2022/12/16 01:32:16;;;;;;;19.70;12.27;;;-8.40;99.90;;;;;;5008363;28;20669;-80
2022/12/16 01:34:42;;;;;;;17.93;11.90;;;-7.80;99.90;;;;;;5009225;28;20193;-79
2022/12/16 01:37:11;;;;;;;18.10;12.03;;;-8.40;99.90;;;;;;5007455;28;20290;-78
2022/12/16 01:39:38;;;;;;;21.13;13.03;;;-8.40;99.90;;;;;;5009246;28;20194;-80
2022/12/16 01:42:07;;;;;;;18.83;13.30;;;-8.30;99.90;;;;;;5007915;28;20207;-80
2022/12/16 01:44:33;;;;;;;20.77;13.37;;;-8.30;99.90;;;;;;5007748;28;20765;-82
2022/12/16 01:47:03;;;;;;;17.60;11.63;;;-8.30;1.00;;;;;;5009692;28;20223;-79
2022/12/16 01:49:29;;;;;;;19.57;13.40;;;-8.20;1.00;;;;;;5013593;28;20199;-80
2022/12/16 01:51:59;;;;;;;22.47;13.90;;;-8.20;1.00;;;;;;5015396;28;20245;-79
2022/12/16 01:54:36;;;;;;;20.00;12.90;;;-8.20;1.00;;;;;;5015726;28;20201;-79
2022/12/16 01:57:07;;;;;;;19.40;11.80;;;-8.10;1.00;;;;;;5013662;28;20301;-81
2022/12/16 01:59:37;;;;;;;21.53;13.57;;;-8.00;1.00;;;;;;5015104;28;20198;-80
2022/12/16 02:02:03;;;;;;;18.83;12.40;;;-8.10;1.00;;;;;;5013650;28;20207;-79
2022/12/16 02:04:28;;;;;;;22.67;13.47;;;-8.10;1.00;;;;;;5015032;28;20263;-79
2022/12/16 02:06:55;;;;;;;21.70;13.47;;;-8.10;1.00;;;;;;5013206;28;20326;-80
2022/12/16 02:09:20;;;;;;;19.90;12.20;;;-8.10;1.00;;;;;;5014949;28;20187;-80
2022/12/16 02:12:05;;;;;;;19.00;12.23;;;-8.20;1.00;;;;;;5006487;28;20201;-80
2022/12/16 02:14:53;;;;;;;23.87;13.07;;;-8.10;1.00;;;;;;5013212;28;20190;-80
2022/12/16 02:17:44;;;;;;;20.83;13.10;;;-8.20;1.00;;;;;;5014223;28;20574;-79
2022/12/16 02:20:31;;;;;;;20.20;12.63;;;-8.30;1.00;;;;;;5007358;28;20195;-81
2022/12/16 02:23:27;;;;;;;19.80;11.87;;;-8.40;1.00;;;;;;5014294;28;20264;-80
2022/12/16 02:26:46;;;;;;;19.17;12.07;;;-8.40;1.00;;;;;;5013700;28;20179;-77
2022/12/16 02:29:33;;;;;;;19.53;12.10;;;-8.20;99.90;;;;;;4958262;28;20192;-78
2022/12/16 02:32:20;;;;;;;19.63;12.00;;;-8.40;99.90;;;;;;5012486;28;20266;-79
2022/12/16 02:35:00;;;;;;;20.40;12.73;;;-8.50;99.90;;;;;;5013747;28;20258;-79
2022/12/16 02:37:34;;;;;;;20.03;12.20;;;-8.40;99.90;;;;;;5013756;28;20285;-78
2022/12/16 02:40:17;;;;;;;20.57;12.97;;;-8.40;99.90;;;;;;5031072;28;20664;-79
2022/12/16 02:42:49;;;;;;;18.37;12.17;;;-8.00;99.90;;;;;;5016210;28;20237;-80
2022/12/16 02:45:22;;;;;;;20.63;12.00;;;-8.30;99.90;;;;;;5016721;28;20183;-80
2022/12/16 02:47:48;;;;;;;21.70;11.03;;;-8.40;99.90;;;;;;5016035;28;20219;-80
2022/12/16 02:50:22;;;;;;;19.40;11.07;;;-8.40;99.90;;;;;;5016668;28;20183;-80
2022/12/16 02:52:49;;;;;;;15.97;9.73;;;-8.50;99.90;;;;;;5014960;28;20266;-79
2022/12/16 02:55:15;;;;;;;14.30;9.37;;;-8.50;99.90;;;;;;5015138;28;21251;-79
2022/12/16 02:57:55;;;;;;;15.90;9.93;;;-8.50;99.90;;;;;;5013905;28;20708;-81
2022/12/16 03:00:22;;;;;;;17.40;9.43;;;-8.60;99.90;;;;;;5012431;28;20190;-79
2022/12/16 03:03:00;;;;;;;16.83;9.70;;;-8.60;99.90;;;;;;5011546;28;20306;-80
2022/12/16 03:05:47;;;;;;;13.77;9.43;;;-8.60;99.90;;;;;;5011569;28;20685;-79
2022/12/16 03:08:19;;;;;;;14.27;9.10;;;-8.70;99.90;;;;;;5012736;28;21314;-79
2022/12/16 03:10:54;;;;;;;13.80;9.10;;;-8.70;99.90;;;;;;5020669;28;20179;-78
2022/12/16 03:13:21;;;;;;;16.43;8.80;;;-8.70;99.90;;;;;;5014302;28;20183;-80
2022/12/16 03:15:51;;;;;;;13.77;8.90;;;-8.70;99.90;;;;;;5011687;28;20188;-80
2022/12/16 03:18:19;;;;;;;14.27;9.40;;;-8.70;99.90;;;;;;5020436;28;20235;-80
2022/12/16 03:20:59;;;;;;;13.50;8.10;;;-8.70;99.90;;;;;;5012235;28;20184;-80
2022/12/16 03:23:30;;;;;;;16.37;9.20;;;-8.70;99.90;;;;;;5010604;28;20721;-79
2022/12/16 03:26:03;;;;;;;13.43;8.50;;;-8.80;99.90;;;;;;5010281;28;20183;-80
2022/12/16 03:28:51;;;;;;;14.00;8.53;;;-8.80;99.90;;;;;;5012858;28;20188;-80
2022/12/16 03:31:35;;;;;;;11.90;7.97;;;-8.80;99.90;;;;;;5012848;28;20179;-80
2022/12/16 03:34:09;;;;;;;12.97;8.20;;;-8.80;99.90;;;;;;5012066;28;20263;-80
2022/12/16 03:36:38;;;;;;;13.77;7.87;;;-8.80;99.90;;;;;;5003523;28;20207;-80
2022/12/16 03:39:05;;;;;;;11.00;7.97;;;-8.80;99.90;;;;;;5011557;28;20543;-79
2022/12/16 03:41:32;;;;;;;11.93;8.23;;;-8.90;99.90;;;;;;5012327;28;20230;-79
2022/12/16 03:43:58;;;;;;;13.97;8.13;;;-8.90;99.90;;;;;;5011676;28;20188;-80
2022/12/16 03:46:24;;;;;;;16.10;8.67;;;-9.00;99.90;;;;;;5010871;28;20211;-80
2022/12/16 03:48:51;;;;;;;15.13;10.07;;;-8.10;99.90;;;;;;5010215;28;20202;-79
2022/12/16 03:51:19;;;;;;;23.63;14.00;;;-9.00;99.90;;;;;;5010861;28;20223;-80
2022/12/16 03:53:45;;;;;;;24.17;14.43;;;-9.00;99.90;;;;;;5011231;28;20197;-79
2022/12/16 03:56:11;;;;;;;22.03;12.80;;;-9.00;99.90;;;;;;5012234;28;20278;-78
2022/12/16 03:58:41;;;;;;;18.80;12.23;;;-9.10;99.90;;;;;;5009908;28;20245;-80
2022/12/16 04:01:08;;;;;;;17.90;11.20;;;-9.10;99.90;;;;;;5012258;28;20194;-81
2022/12/16 04:03:35;;;;;;;17.00;10.67;;;-9.10;99.90;;;;;;5018624;28;20203;-81
2022/12/16 04:06:01;;;;;;;18.07;10.77;;;-9.10;99.90;;;;;;5009429;28;20238;-77
2022/12/16 04:08:26;;;;;;;18.43;10.10;;;-9.10;99.90;;;;;;5001763;28;21090;-81
2022/12/16 04:24:34;;;;;;;15.47;8.63;;;-9.10;99.90;;;;;;5011034;28;20237;-78
2022/12/16 04:34:24;;;;;;;13.13;8.00;;;-8.80;99.90;;;;;;5011220;28;20194;-79
